sensor_id;sensor_type;location;lat;lon;timestamp;pressure;altitude;pressure_sealevel;temperature;humidity
25855;BME280;13680;49.936;11.344;2023-02-01T00:00:10;96953.75;;;4.12;91.95
25855;BME280;13680;49.936;11.344;2023-02-01T00:02:36;96941.19;;;4.39;90.06
25855;BME280;13680;49.936;11.344;2023-02-01T00:05:05;96930.47;;;4.29;90.86
25855;BME280;13680;49.936;11.344;2023-02-01T00:07:30;96925.78;;;4.41;90.92
25855;BME280;13680;49.936;11.344;2023-02-01T00:09:56;96938.91;;;4.21;90.91
25855;BME280;13680;49.936;11.344;2023-02-01T00:12:21;96929.56;;;4.18;93.00
25855;BME280;13680;49.936;11.344;2023-02-01T00:14:46;96928.97;;;4.43;90.67
25855;BME280;13680;49.936;11.344;2023-02-01T00:17:13;96923.00;;;4.31;91.69
25855;BME280;13680;49.936;11.344;2023-02-01T00:19:38;96920.97;;;4.43;90.77
25855;BME280;13680;49.936;11.344;2023-02-01T00:22:04;96921.09;;;4.21;91.33
25855;BME280;13680;49.936;11.344;2023-02-01T00:24:29;96924.06;;;4.25;91.19
25855;BME280;13680;49.936;11.344;2023-02-01T00:26:54;96911.81;;;3.97;93.27
25855;BME280;13680;49.936;11.344;2023-02-01T00:29:20;96914.78;;;4.00;94.47
25855;BME280;13680;49.936;11.344;2023-02-01T00:31:46;96925.50;;;4.10;93.95
25855;BME280;13680;49.936;11.344;2023-02-01T00:34:13;96925.16;;;4.29;92.12
25855;BME280;13680;49.936;11.344;2023-02-01T00:36:39;96920.66;;;3.75;94.77
25855;BME280;13680;49.936;11.344;2023-02-01T00:39:04;96915.25;;;3.92;95.64
25855;BME280;13680;49.936;11.344;2023-02-01T00:41:30;96911.41;;;4.10;94.21
25855;BME280;13680;49.936;11.344;2023-02-01T00:43:55;96918.97;;;4.23;92.42
25855;BME280;13680;49.936;11.344;2023-02-01T00:46:20;96913.81;;;4.44;92.60
25855;BME280;13680;49.936;11.344;2023-02-01T00:48:46;96919.19;;;4.49;90.79
25855;BME280;13680;49.936;11.344;2023-02-01T00:51:23;96906.03;;;4.37;91.71
25855;BME280;13680;49.936;11.344;2023-02-01T00:53:50;96897.41;;;4.20;93.07
25855;BME280;13680;49.936;11.344;2023-02-01T00:56:16;96913.63;;;4.56;91.06
25855;BME280;13680;49.936;11.344;2023-02-01T00:58:41;96903.25;;;4.59;90.57
25855;BME280;13680;49.936;11.344;2023-02-01T01:01:30;96898.72;;;4.60;90.83
25855;BME280;13680;49.936;11.344;2023-02-01T01:03:57;96907.81;;;4.69;89.54
25855;BME280;13680;49.936;11.344;2023-02-01T01:06:26;96895.00;;;4.61;89.83
25855;BME280;13680;49.936;11.344;2023-02-01T01:08:53;96898.19;;;4.58;89.96
25855;BME280;13680;49.936;11.344;2023-02-01T01:11:22;96908.06;;;4.63;89.65
25855;BME280;13680;49.936;11.344;2023-02-01T01:13:49;96903.13;;;4.39;90.90
25855;BME280;13680;49.936;11.344;2023-02-01T01:16:15;96900.59;;;4.59;90.61
25855;BME280;13680;49.936;11.344;2023-02-01T01:18:41;96908.16;;;4.35;92.36
25855;BME280;13680;49.936;11.344;2023-02-01T01:21:08;96909.31;;;4.50;91.45
25855;BME280;13680;49.936;11.344;2023-02-01T01:23:34;96911.78;;;4.62;90.82
25855;BME280;13680;49.936;11.344;2023-02-01T01:26:00;96915.03;;;4.31;92.59
25855;BME280;13680;49.936;11.344;2023-02-01T01:28:26;96919.75;;;4.56;90.70
25855;BME280;13680;49.936;11.344;2023-02-01T01:30:51;96920.47;;;4.41;91.03
25855;BME280;13680;49.936;11.344;2023-02-01T01:33:16;96919.53;;;4.25;91.65
25855;BME280;13680;49.936;11.344;2023-02-01T01:35:42;96921.75;;;4.06;93.82
25855;BME280;13680;49.936;11.344;2023-02-01T01:38:09;96921.38;;;3.92;94.06
25855;BME280;13680;49.936;11.344;2023-02-01T01:40:35;96915.34;;;4.02;95.02
25855;BME280;13680;49.936;11.344;2023-02-01T01:43:00;96921.81;;;4.44;91.89
25855;BME280;13680;49.936;11.344;2023-02-01T01:45:27;96914.91;;;4.16;91.75
25855;BME280;13680;49.936;11.344;2023-02-01T01:48:21;96913.78;;;4.06;93.89
25855;BME280;13680;49.936;11.344;2023-02-01T01:50:56;96912.06;;;4.22;91.87
25855;BME280;13680;49.936;11.344;2023-02-01T01:53:28;96916.56;;;3.89;92.99
25855;BME280;13680;49.936;11.344;2023-02-01T01:55:55;96917.13;;;4.24;92.14
25855;BME280;13680;49.936;11.344;2023-02-01T01:58:25;96921.59;;;4.18;90.35
25855;BME280;13680;49.936;11.344;2023-02-01T02:00:51;96932.09;;;4.30;89.97
25855;BME280;13680;49.936;11.344;2023-02-01T02:03:20;96920.69;;;4.40;88.78
25855;BME280;13680;49.936;11.344;2023-02-01T02:05:48;96924.31;;;4.29;89.11
25855;BME280;13680;49.936;11.344;2023-02-01T02:08:14;96910.25;;;4.33;88.37
25855;BME280;13680;49.936;11.344;2023-02-01T02:10:40;96913.47;;;4.35;87.73
25855;BME280;13680;49.936;11.344;2023-02-01T02:13:23;96898.63;;;4.45;87.12
25855;BME280;13680;49.936;11.344;2023-02-01T02:32:52;96885.66;;;4.58;85.77
25855;BME280;13680;49.936;11.344;2023-02-01T02:35:30;96885.13;;;4.56;85.72
25855;BME280;13680;49.936;11.344;2023-02-01T02:39:00;96883.78;;;4.54;86.05
25855;BME280;13680;49.936;11.344;2023-02-01T02:41:10;96882.41;;;4.51;86.41
25855;BME280;13680;49.936;11.344;2023-02-01T02:43:59;96886.47;;;4.59;86.24
25855;BME280;13680;49.936;11.344;2023-02-01T02:46:50;96887.22;;;4.49;86.74
25855;BME280;13680;49.936;11.344;2023-02-01T02:49:40;96879.25;;;4.54;86.26
25855;BME280;13680;49.936;11.344;2023-02-01T02:52:13;96878.44;;;4.54;87.12
25855;BME280;13680;49.936;11.344;2023-02-01T02:55:19;96853.50;;;4.22;89.62
25855;BME280;13680;49.936;11.344;2023-02-01T02:57:46;96845.94;;;4.09;90.59
25855;BME280;13680;49.936;11.344;2023-02-01T03:00:32;96843.31;;;4.52;88.22
25855;BME280;13680;49.936;11.344;2023-02-01T03:03:17;96848.56;;;4.41;88.13
25855;BME280;13680;49.936;11.344;2023-02-01T03:06:01;96844.16;;;4.20;88.77
25855;BME280;13680;49.936;11.344;2023-02-01T03:08:28;96835.31;;;4.52;87.79
25855;BME280;13680;49.936;11.344;2023-02-01T03:16:13;96848.09;;;4.55;88.13
25855;BME280;13680;49.936;11.344;2023-02-01T03:21:24;96859.34;;;4.24;88.94
25855;BME280;13680;49.936;11.344;2023-02-01T03:23:53;96850.38;;;4.36;89.22
25855;BME280;13680;49.936;11.344;2023-02-01T03:26:23;96849.38;;;4.47;88.05
25855;BME280;13680;49.936;11.344;2023-02-01T03:28:55;96851.41;;;4.30;89.24
25855;BME280;13680;49.936;11.344;2023-02-01T03:31:22;96847.69;;;4.31;89.76
25855;BME280;13680;49.936;11.344;2023-02-01T03:33:48;96824.88;;;4.45;88.32
25855;BME280;13680;49.936;11.344;2023-02-01T03:36:26;96822.53;;;4.54;87.88
25855;BME280;13680;49.936;11.344;2023-02-01T03:39:00;96804.88;;;4.42;88.51
25855;BME280;13680;49.936;11.344;2023-02-01T03:41:39;96809.03;;;4.23;89.68
25855;BME280;13680;49.936;11.344;2023-02-01T03:44:13;96820.34;;;4.40;89.57
25855;BME280;13680;49.936;11.344;2023-02-01T03:47:00;96829.38;;;4.39;89.55
25855;BME280;13680;49.936;11.344;2023-02-01T03:49:35;96825.47;;;4.57;89.12
25855;BME280;13680;49.936;11.344;2023-02-01T03:52:02;96825.22;;;4.59;88.55
25855;BME280;13680;49.936;11.344;2023-02-01T03:54:30;96824.69;;;4.57;89.88
25855;BME280;13680;49.936;11.344;2023-02-01T03:57:00;96817.56;;;4.73;88.87
25855;BME280;13680;49.936;11.344;2023-02-01T03:59:28;96815.94;;;4.72;88.16
25855;BME280;13680;49.936;11.344;2023-02-01T04:01:53;96818.81;;;4.60;88.86
25855;BME280;13680;49.936;11.344;2023-02-01T04:04:18;96826.06;;;4.65;88.42
25855;BME280;13680;49.936;11.344;2023-02-01T04:06:47;96827.97;;;4.80;87.66
25855;BME280;13680;49.936;11.344;2023-02-01T04:09:13;96809.41;;;4.37;89.95
25855;BME280;13680;49.936;11.344;2023-02-01T04:11:38;96814.88;;;4.68;89.09
25855;BME280;13680;49.936;11.344;2023-02-01T04:14:04;96808.47;;;4.64;89.73
25855;BME280;13680;49.936;11.344;2023-02-01T04:16:30;96802.81;;;4.50;90.13
25855;BME280;13680;49.936;11.344;2023-02-01T04:18:56;96801.31;;;4.80;88.99
25855;BME280;13680;49.936;11.344;2023-02-01T04:21:22;96799.97;;;4.72;89.25
25855;BME280;13680;49.936;11.344;2023-02-01T04:23:48;96790.09;;;4.62;89.51
25855;BME280;13680;49.936;11.344;2023-02-01T04:26:13;96793.69;;;4.35;90.20
25855;BME280;13680;49.936;11.344;2023-02-01T04:28:38;96793.81;;;4.66;89.23
25855;BME280;13680;49.936;11.344;2023-02-01T04:31:04;96784.22;;;4.60;89.61
25855;BME280;13680;49.936;11.344;2023-02-01T04:33:29;96785.53;;;4.63;89.84
25855;BME280;13680;49.936;11.344;2023-02-01T04:35:55;96786.59;;;4.56;89.61
25855;BME280;13680;49.936;11.344;2023-02-01T04:38:20;96784.75;;;4.62;89.93
25855;BME280;13680;49.936;11.344;2023-02-01T04:40:49;96787.91;;;4.59;89.93
25855;BME280;13680;49.936;11.344;2023-02-01T04:43:15;96775.06;;;4.40;91.02
25855;BME280;13680;49.936;11.344;2023-02-01T04:45:41;96773.09;;;4.20;91.01
25855;BME280;13680;49.936;11.344;2023-02-01T04:48:06;96784.97;;;4.02;93.50
25855;BME280;13680;49.936;11.344;2023-02-01T04:50:31;96789.69;;;4.38;92.59
25855;BME280;13680;49.936;11.344;2023-02-01T04:52:57;96794.22;;;4.37;91.86
25855;BME280;13680;49.936;11.344;2023-02-01T04:55:22;96803.34;;;4.04;92.16
25855;BME280;13680;49.936;11.344;2023-02-01T04:57:47;96785.78;;;4.08;93.87
25855;BME280;13680;49.936;11.344;2023-02-01T05:00:13;96798.38;;;4.18;92.71
25855;BME280;13680;49.936;11.344;2023-02-01T05:02:38;96808.31;;;3.95;92.84
25855;BME280;13680;49.936;11.344;2023-02-01T05:05:04;96798.19;;;3.92;93.59
25855;BME280;13680;49.936;11.344;2023-02-01T05:07:30;96781.88;;;4.21;91.77
25855;BME280;13680;49.936;11.344;2023-02-01T05:09:55;96777.03;;;4.13;91.59
25855;BME280;13680;49.936;11.344;2023-02-01T05:12:20;96785.94;;;3.91;93.03
25855;BME280;13680;49.936;11.344;2023-02-01T05:15:05;96792.34;;;3.95;92.87
25855;BME280;13680;49.936;11.344;2023-02-01T05:17:30;96783.44;;;4.17;91.54
25855;BME280;13680;49.936;11.344;2023-02-01T05:19:56;96785.22;;;4.01;92.04
25855;BME280;13680;49.936;11.344;2023-02-01T05:22:21;96792.06;;;4.34;91.59
25855;BME280;13680;49.936;11.344;2023-02-01T05:24:46;96775.41;;;4.06;91.80
25855;BME280;13680;49.936;11.344;2023-02-01T05:27:12;96777.03;;;4.13;92.02
25855;BME280;13680;49.936;11.344;2023-02-01T05:29:37;96775.25;;;4.29;90.20
25855;BME280;13680;49.936;11.344;2023-02-01T05:32:03;96762.03;;;3.96;92.89
25855;BME280;13680;49.936;11.344;2023-02-01T05:34:28;96769.16;;;4.28;91.87
25855;BME280;13680;49.936;11.344;2023-02-01T05:36:53;96766.56;;;4.43;90.86
25855;BME280;13680;49.936;11.344;2023-02-01T05:39:19;96760.63;;;4.31;91.49
25855;BME280;13680;49.936;11.344;2023-02-01T05:41:44;96766.56;;;3.96;93.70
25855;BME280;13680;49.936;11.344;2023-02-01T05:44:10;96762.44;;;3.77;93.09
25855;BME280;13680;49.936;11.344;2023-02-01T05:46:36;96758.53;;;4.33;91.87
25855;BME280;13680;49.936;11.344;2023-02-01T05:49:02;96764.91;;;4.32;90.48
25855;BME280;13680;49.936;11.344;2023-02-01T05:51:28;96756.13;;;3.89;92.66
25855;BME280;13680;49.936;11.344;2023-02-01T05:53:53;96757.78;;;4.43;90.37
25855;BME280;13680;49.936;11.344;2023-02-01T05:56:18;96753.72;;;4.30;90.00
25855;BME280;13680;49.936;11.344;2023-02-01T05:58:44;96753.19;;;4.28;89.98
25855;BME280;13680;49.936;11.344;2023-02-01T06:01:09;96747.63;;;4.40;89.48
25855;BME280;13680;49.936;11.344;2023-02-01T06:03:35;96749.81;;;4.48;89.25
25855;BME280;13680;49.936;11.344;2023-02-01T06:06:00;96738.53;;;4.25;89.51
25855;BME280;13680;49.936;11.344;2023-02-01T06:08:26;96750.50;;;4.28;91.10
25855;BME280;13680;49.936;11.344;2023-02-01T06:10:59;96752.63;;;4.31;89.74
25855;BME280;13680;49.936;11.344;2023-02-01T06:13:24;96734.00;;;4.31;90.21
25855;BME280;13680;49.936;11.344;2023-02-01T06:15:50;96750.28;;;4.40;89.91
25855;BME280;13680;49.936;11.344;2023-02-01T06:18:16;96737.78;;;4.35;89.20
25855;BME280;13680;49.936;11.344;2023-02-01T06:20:42;96731.66;;;4.40;89.42
25855;BME280;13680;49.936;11.344;2023-02-01T06:23:07;96732.22;;;3.94;90.69
25855;BME280;13680;49.936;11.344;2023-02-01T06:25:32;96725.38;;;4.03;92.38
25855;BME280;13680;49.936;11.344;2023-02-01T06:28:01;96734.00;;;4.26;90.44
25855;BME280;13680;49.936;11.344;2023-02-01T06:30:27;96728.91;;;4.19;90.44
25855;BME280;13680;49.936;11.344;2023-02-01T06:32:52;96731.63;;;4.35;88.69
25855;BME280;13680;49.936;11.344;2023-02-01T06:35:18;96725.94;;;4.10;91.18
25855;BME280;13680;49.936;11.344;2023-02-01T06:37:44;96724.25;;;4.47;88.97
25855;BME280;13680;49.936;11.344;2023-02-01T06:40:10;96743.69;;;4.53;88.08
25855;BME280;13680;49.936;11.344;2023-02-01T06:42:35;96744.72;;;4.36;88.28
25855;BME280;13680;49.936;11.344;2023-02-01T06:45:00;96755.69;;;4.02;90.01
25855;BME280;13680;49.936;11.344;2023-02-01T06:47:26;96747.50;;;4.14;90.12
25855;BME280;13680;49.936;11.344;2023-02-01T06:49:51;96752.31;;;4.12;89.43
25855;BME280;13680;49.936;11.344;2023-02-01T06:52:16;96749.53;;;3.97;90.72
25855;BME280;13680;49.936;11.344;2023-02-01T06:54:42;96749.34;;;4.08;89.95
25855;BME280;13680;49.936;11.344;2023-02-01T06:57:07;96741.91;;;4.10;90.21
25855;BME280;13680;49.936;11.344;2023-02-01T06:59:32;96745.75;;;4.30;89.88
25855;BME280;13680;49.936;11.344;2023-02-01T07:01:58;96750.47;;;4.18;88.71
25855;BME280;13680;49.936;11.344;2023-02-01T07:04:23;96754.59;;;4.46;87.95
25855;BME280;13680;49.936;11.344;2023-02-01T07:06:49;96755.88;;;4.38;87.74
25855;BME280;13680;49.936;11.344;2023-02-01T07:09:14;96758.88;;;4.52;86.89
25855;BME280;13680;49.936;11.344;2023-02-01T07:11:39;96759.22;;;4.18;87.50
25855;BME280;13680;49.936;11.344;2023-02-01T07:14:09;96760.94;;;4.40;87.52
25855;BME280;13680;49.936;11.344;2023-02-01T07:16:35;96759.91;;;4.46;87.13
25855;BME280;13680;49.936;11.344;2023-02-01T07:19:00;96750.81;;;4.37;86.57
25855;BME280;13680;49.936;11.344;2023-02-01T07:21:26;96761.81;;;4.51;86.10
25855;BME280;13680;49.936;11.344;2023-02-01T07:23:53;96769.28;;;4.59;85.08
25855;BME280;13680;49.936;11.344;2023-02-01T07:26:18;96775.44;;;4.59;85.49
25855;BME280;13680;49.936;11.344;2023-02-01T07:28:44;96773.78;;;4.48;86.74
25855;BME280;13680;49.936;11.344;2023-02-01T07:31:12;96767.63;;;4.48;85.74
25855;BME280;13680;49.936;11.344;2023-02-01T07:33:43;96774.84;;;4.52;86.25
25855;BME280;13680;49.936;11.344;2023-02-01T07:36:13;96770.22;;;4.32;86.44
25855;BME280;13680;49.936;11.344;2023-02-01T07:38:38;96767.41;;;4.49;86.41
25855;BME280;13680;49.936;11.344;2023-02-01T07:41:05;96766.25;;;4.40;86.28
25855;BME280;13680;49.936;11.344;2023-02-01T07:43:31;96771.75;;;4.71;85.03
25855;BME280;13680;49.936;11.344;2023-02-01T07:45:58;96759.09;;;4.40;86.27
25855;BME280;13680;49.936;11.344;2023-02-01T07:48:24;96763.53;;;4.24;86.62
25855;BME280;13680;49.936;11.344;2023-02-01T07:51:19;96755.63;;;4.45;86.27
25855;BME280;13680;49.936;11.344;2023-02-01T07:53:45;96754.13;;;4.59;84.99
25855;BME280;13680;49.936;11.344;2023-02-01T07:56:16;96759.94;;;4.51;85.64
25855;BME280;13680;49.936;11.344;2023-02-01T07:58:42;96765.44;;;4.29;86.48
25855;BME280;13680;49.936;11.344;2023-02-01T08:01:34;96748.31;;;4.78;84.53
25855;BME280;13680;49.936;11.344;2023-02-01T08:04:01;96745.78;;;4.40;84.93
25855;BME280;13680;49.936;11.344;2023-02-01T08:06:29;96751.94;;;4.51;85.75
25855;BME280;13680;49.936;11.344;2023-02-01T08:08:56;96744.56;;;4.74;84.29
25855;BME280;13680;49.936;11.344;2023-02-01T08:11:23;96750.47;;;4.23;86.31
25855;BME280;13680;49.936;11.344;2023-02-01T08:13:49;96759.13;;;4.46;86.31
25855;BME280;13680;49.936;11.344;2023-02-01T08:16:16;96739.38;;;4.36;85.78
25855;BME280;13680;49.936;11.344;2023-02-01T08:18:42;96746.81;;;4.34;86.10
25855;BME280;13680;49.936;11.344;2023-02-01T08:21:19;96739.78;;;4.13;86.94
25855;BME280;13680;49.936;11.344;2023-02-01T08:23:45;96745.72;;;4.25;86.80
25855;BME280;13680;49.936;11.344;2023-02-01T08:26:13;96760.09;;;4.29;86.33
25855;BME280;13680;49.936;11.344;2023-02-01T08:28:42;96763.75;;;4.13;87.55
25855;BME280;13680;49.936;11.344;2023-02-01T08:31:10;96767.38;;;4.44;86.69
25855;BME280;13680;49.936;11.344;2023-02-01T08:33:36;96783.59;;;4.48;85.25
25855;BME280;13680;49.936;11.344;2023-02-01T08:36:05;96779.69;;;4.07;87.06
25855;BME280;13680;49.936;11.344;2023-02-01T08:38:30;96783.03;;;4.35;86.85
25855;BME280;13680;49.936;11.344;2023-02-01T08:40:56;96778.81;;;4.45;85.64
25855;BME280;13680;49.936;11.344;2023-02-01T08:43:22;96781.44;;;4.39;85.94
25855;BME280;13680;49.936;11.344;2023-02-01T08:45:48;96783.41;;;4.54;85.56
25855;BME280;13680;49.936;11.344;2023-02-01T08:48:13;96780.59;;;4.92;84.03
25855;BME280;13680;49.936;11.344;2023-02-01T08:50:39;96783.31;;;4.39;85.59
25855;BME280;13680;49.936;11.344;2023-02-01T08:53:04;96791.69;;;4.63;85.92
25855;BME280;13680;49.936;11.344;2023-02-01T08:55:29;96796.44;;;4.56;85.59
25855;BME280;13680;49.936;11.344;2023-02-01T08:57:55;96792.69;;;4.47;85.48
25855;BME280;13680;49.936;11.344;2023-02-01T09:00:21;96796.59;;;4.34;86.04
25855;BME280;13680;49.936;11.344;2023-02-01T09:02:46;96798.16;;;4.30;86.38
25855;BME280;13680;49.936;11.344;2023-02-01T09:05:12;96801.88;;;4.29;85.30
25855;BME280;13680;49.936;11.344;2023-02-01T09:07:39;96791.63;;;4.53;85.18
25855;BME280;13680;49.936;11.344;2023-02-01T09:10:05;96787.94;;;4.64;84.40
25855;BME280;13680;49.936;11.344;2023-02-01T09:12:32;96786.25;;;4.42;83.55
25855;BME280;13680;49.936;11.344;2023-02-01T09:14:58;96782.56;;;4.49;84.02
25855;BME280;13680;49.936;11.344;2023-02-01T09:17:27;96784.50;;;4.69;82.46
25855;BME280;13680;49.936;11.344;2023-02-01T09:19:52;96785.81;;;4.61;81.84
25855;BME280;13680;49.936;11.344;2023-02-01T09:22:17;96794.03;;;4.54;82.14
25855;BME280;13680;49.936;11.344;2023-02-01T09:24:43;96805.19;;;4.51;82.64
25855;BME280;13680;49.936;11.344;2023-02-01T09:27:08;96805.00;;;4.58;81.33
25855;BME280;13680;49.936;11.344;2023-02-01T09:29:34;96806.75;;;4.42;80.84
25855;BME280;13680;49.936;11.344;2023-02-01T09:31:59;96810.69;;;4.82;79.81
25855;BME280;13680;49.936;11.344;2023-02-01T09:34:25;96810.97;;;4.96;79.69
25855;BME280;13680;49.936;11.344;2023-02-01T09:36:50;96813.25;;;4.67;81.24
25855;BME280;13680;49.936;11.344;2023-02-01T09:39:15;96811.38;;;4.62;81.36
25855;BME280;13680;49.936;11.344;2023-02-01T09:41:58;96818.09;;;4.75;79.66
25855;BME280;13680;49.936;11.344;2023-02-01T09:44:48;96810.69;;;4.82;79.93
25855;BME280;13680;49.936;11.344;2023-02-01T09:47:18;96800.94;;;5.29;78.65
25855;BME280;13680;49.936;11.344;2023-02-01T09:50:15;96829.69;;;5.06;79.06
25855;BME280;13680;49.936;11.344;2023-02-01T09:53:21;96814.13;;;4.83;79.80
25855;BME280;13680;49.936;11.344;2023-02-01T09:55:50;96825.13;;;4.43;81.49
25855;BME280;13680;49.936;11.344;2023-02-01T09:58:30;96824.25;;;4.81;80.75
25855;BME280;13680;49.936;11.344;2023-02-01T10:01:00;96839.56;;;4.53;82.09
25855;BME280;13680;49.936;11.344;2023-02-01T10:03:34;96837.31;;;4.82;81.05
25855;BME280;13680;49.936;11.344;2023-02-01T10:08:37;96822.16;;;4.93;80.46
25855;BME280;13680;49.936;11.344;2023-02-01T10:11:25;96828.84;;;5.01;79.80
25855;BME280;13680;49.936;11.344;2023-02-01T10:14:00;96829.38;;;4.98;79.85
25855;BME280;13680;49.936;11.344;2023-02-01T10:16:49;96830.81;;;5.26;78.76
25855;BME280;13680;49.936;11.344;2023-02-01T10:19:20;96827.06;;;5.17;79.81
25855;BME280;13680;49.936;11.344;2023-02-01T10:21:58;96826.97;;;5.01;78.26
25855;BME280;13680;49.936;11.344;2023-02-01T10:24:36;96823.88;;;5.35;77.81
25855;BME280;13680;49.936;11.344;2023-02-01T10:27:20;96836.53;;;4.92;78.59
25855;BME280;13680;49.936;11.344;2023-02-01T10:29:58;96822.22;;;5.14;78.34
25855;BME280;13680;49.936;11.344;2023-02-01T10:32:29;96836.63;;;5.23;77.76
25855;BME280;13680;49.936;11.344;2023-02-01T10:34:59;96844.38;;;5.14;77.68
25855;BME280;13680;49.936;11.344;2023-02-01T10:37:33;96840.69;;;5.31;77.87
25855;BME280;13680;49.936;11.344;2023-02-01T10:40:10;96838.22;;;5.14;78.35
25855;BME280;13680;49.936;11.344;2023-02-01T10:42:37;96829.72;;;5.12;77.08
25855;BME280;13680;49.936;11.344;2023-02-01T10:45:05;96839.38;;;5.33;76.80
25855;BME280;13680;49.936;11.344;2023-02-01T10:47:31;96831.38;;;5.33;76.30
25855;BME280;13680;49.936;11.344;2023-02-01T10:50:17;96830.28;;;5.39;77.09
25855;BME280;13680;49.936;11.344;2023-02-01T10:53:03;96826.38;;;4.79;78.30
25855;BME280;13680;49.936;11.344;2023-02-01T10:58:30;96839.06;;;5.24;77.95
25855;BME280;13680;49.936;11.344;2023-02-01T11:01:04;96822.75;;;5.11;78.52
25855;BME280;13680;49.936;11.344;2023-02-01T11:07:04;96821.69;;;5.06;77.27
25855;BME280;13680;49.936;11.344;2023-02-01T11:09:24;96813.63;;;4.91;79.06
25855;BME280;13680;49.936;11.344;2023-02-01T11:14:26;96809.25;;;5.53;77.36
25855;BME280;13680;49.936;11.344;2023-02-01T11:16:57;96805.50;;;5.75;76.17
25855;BME280;13680;49.936;11.344;2023-02-01T11:19:23;96804.16;;;5.31;76.26
25855;BME280;13680;49.936;11.344;2023-02-01T11:21:51;96798.81;;;5.36;76.48
25855;BME280;13680;49.936;11.344;2023-02-01T11:24:27;96807.91;;;5.66;74.91
25855;BME280;13680;49.936;11.344;2023-02-01T11:26:57;96782.84;;;5.41;76.02
25855;BME280;13680;49.936;11.344;2023-02-01T11:29:24;96784.97;;;5.50;74.95
25855;BME280;13680;49.936;11.344;2023-02-01T11:31:56;96794.03;;;5.38;76.06
25855;BME280;13680;49.936;11.344;2023-02-01T11:34:25;96796.72;;;5.74;76.03
25855;BME280;13680;49.936;11.344;2023-02-01T11:36:54;96805.78;;;5.94;74.80
25855;BME280;13680;49.936;11.344;2023-02-01T11:39:26;96799.81;;;5.04;77.77
25855;BME280;13680;49.936;11.344;2023-02-01T11:44:38;96791.38;;;5.85;75.87
25855;BME280;13680;49.936;11.344;2023-02-01T11:47:57;96791.91;;;5.46;75.76
25855;BME280;13680;49.936;11.344;2023-02-01T11:50:26;96792.13;;;5.23;76.53
25855;BME280;13680;49.936;11.344;2023-02-01T11:53:19;96800.97;;;5.50;76.79
25855;BME280;13680;49.936;11.344;2023-02-01T12:01:27;96805.69;;;5.06;78.45
25855;BME280;13680;49.936;11.344;2023-02-01T12:06:48;96812.09;;;5.11;79.80
25855;BME280;13680;49.936;11.344;2023-02-01T12:12:38;96786.72;;;4.87;80.04
25855;BME280;13680;49.936;11.344;2023-02-01T12:18:19;96793.72;;;5.19;78.82
25855;BME280;13680;49.936;11.344;2023-02-01T12:35:46;96764.91;;;5.06;77.75
25855;BME280;13680;49.936;11.344;2023-02-01T12:38:44;96749.22;;;5.46;76.17
25855;BME280;13680;49.936;11.344;2023-02-01T12:41:18;96763.38;;;5.77;75.31
25855;BME280;13680;49.936;11.344;2023-02-01T12:44:03;96764.16;;;5.36;76.93
25855;BME280;13680;49.936;11.344;2023-02-01T12:46:47;96751.66;;;5.57;74.77
25855;BME280;13680;49.936;11.344;2023-02-01T12:49:31;96752.16;;;5.65;74.96
25855;BME280;13680;49.936;11.344;2023-02-01T12:52:04;96747.63;;;5.76;73.65
25855;BME280;13680;49.936;11.344;2023-02-01T12:57:03;96753.78;;;5.45;74.48
25855;BME280;13680;49.936;11.344;2023-02-01T12:59:48;96756.16;;;5.31;75.55
25855;BME280;13680;49.936;11.344;2023-02-01T13:02:21;96746.00;;;5.18;74.86
25855;BME280;13680;49.936;11.344;2023-02-01T13:07:39;96750.81;;;5.16;74.33
25855;BME280;13680;49.936;11.344;2023-02-01T13:13:02;96755.84;;;4.97;74.08
25855;BME280;13680;49.936;11.344;2023-02-01T13:15:37;96751.88;;;5.56;72.48
25855;BME280;13680;49.936;11.344;2023-02-01T13:18:05;96754.56;;;5.46;72.26
25855;BME280;13680;49.936;11.344;2023-02-01T13:20:36;96753.50;;;5.72;70.86
25855;BME280;13680;49.936;11.344;2023-02-01T13:23:08;96756.69;;;5.28;71.57
25855;BME280;13680;49.936;11.344;2023-02-01T13:25:50;96753.50;;;5.41;71.69
25855;BME280;13680;49.936;11.344;2023-02-01T13:28:20;96745.50;;;5.26;71.39
25855;BME280;13680;49.936;11.344;2023-02-01T13:36:56;96743.38;;;5.69;70.08
25855;BME280;13680;49.936;11.344;2023-02-01T13:42:22;96738.03;;;5.54;70.85
25855;BME280;13680;49.936;11.344;2023-02-01T13:44:52;96746.53;;;5.10;71.14
25855;BME280;13680;49.936;11.344;2023-02-01T13:47:27;96750.56;;;5.33;71.18
25855;BME280;13680;49.936;11.344;2023-02-01T13:49:56;96738.56;;;5.56;70.54
25855;BME280;13680;49.936;11.344;2023-02-01T13:55:01;96729.22;;;5.33;71.22
25855;BME280;13680;49.936;11.344;2023-02-01T13:57:38;96733.75;;;5.27;71.59
25855;BME280;13680;49.936;11.344;2023-02-01T14:13:36;96716.41;;;5.61;69.58
25855;BME280;13680;49.936;11.344;2023-02-01T14:21:15;96700.66;;;5.80;68.28
25855;BME280;13680;49.936;11.344;2023-02-01T14:23:44;96713.22;;;5.38;69.90
25855;BME280;13680;49.936;11.344;2023-02-01T14:26:14;96719.09;;;5.40;69.43
25855;BME280;13680;49.936;11.344;2023-02-01T14:28:47;96724.97;;;5.68;68.55
25855;BME280;13680;49.936;11.344;2023-02-01T14:34:01;96708.69;;;5.64;68.51
25855;BME280;13680;49.936;11.344;2023-02-01T14:36:39;96707.63;;;5.60;68.68
25855;BME280;13680;49.936;11.344;2023-02-01T14:39:21;96703.88;;;5.61;68.60
25855;BME280;13680;49.936;11.344;2023-02-01T14:41:53;96696.16;;;5.39;68.86
25855;BME280;13680;49.936;11.344;2023-02-01T14:44:32;96691.63;;;5.70;68.41
25855;BME280;13680;49.936;11.344;2023-02-01T14:47:08;96699.34;;;5.20;70.00
25855;BME280;13680;49.936;11.344;2023-02-01T14:52:17;96710.81;;;5.21;70.16
25855;BME280;13680;49.936;11.344;2023-02-01T14:54:46;96704.94;;;5.34;69.56
25855;BME280;13680;49.936;11.344;2023-02-01T14:57:16;96700.72;;;5.44;69.49
25855;BME280;13680;49.936;11.344;2023-02-01T14:59:45;96703.88;;;5.46;68.68
25855;BME280;13680;49.936;11.344;2023-02-01T15:02:26;96682.03;;;5.38;69.50
25855;BME280;13680;49.936;11.344;2023-02-01T15:04:56;96675.59;;;5.70;68.75
25855;BME280;13680;49.936;11.344;2023-02-01T15:07:24;96668.16;;;5.52;68.92